Flight Track Log - Related Links

Times and Time Zones

All times are in EDT time to prevent confusion due to time zone crossing. See the SKW6338 flight status page for this flight to view local times or setup timezone preferences in your user account.


Time Position Orientation Groundspeed Altitude Reporting Facility
EDT Latitude Longitude Course Direction KTS MPH feet Rate Location/Type
Wed 08:34:48 PM 32.7833 -117.2833 308° West 207 238 2,800  Level Southern California TRACON
Wed 08:35:48 PM 32.8167 -117.3500 301° West 218 251 3,900 905 Climbing Southern California TRACON
Wed 08:36:54 PM 32.8667 -117.4167 312° West 232 267 4,700 800 Climbing Southern California TRACON
Wed 08:37:48 PM 32.9000 -117.4667 308° West 240 276 5,500 947 Climbing Southern California TRACON
Wed 08:38:48 PM 32.9500 -117.5167 320° Northwest 231 266 6,500 791 Climbing Southern California TRACON
Wed 08:39:00 PM 33.0103 -117.4601 320° Northwest  Level FlightAware Approximate
Wed 08:39:19 PM 32.9683 -117.5461 307° West 234 269 6,700  Level Los Angeles Center
Wed 08:40:21 PM 33.0136 -117.6036 313° West 238 274 7,500 629 Climbing Los Angeles Center
Wed 08:41:23 PM 33.0583 -117.6639 312° West 242 278 8,000 242 Climbing Los Angeles Center
Wed 08:42:25 PM 33.1044 -117.7272 311° West 250 288 8,000  Level Los Angeles Center
Wed 08:43:27 PM 33.1486 -117.7900 310° West 249 287 8,000  Level Los Angeles Center
Wed 08:44:29 PM 33.2119 -117.8469 323° Northwest 251 289 8,000  Level Los Angeles Center
Wed 08:45:31 PM 33.2772 -117.8683 345° North 247 284 8,000  Level Los Angeles Center
Wed 08:46:33 PM 33.3428 -117.8911 344° North 246 283 8,000  Level Los Angeles Center
Wed 08:47:35 PM 33.4075 -117.9153 343° North 245 282 8,000  Level Los Angeles Center
Wed 08:48:37 PM 33.4736 -117.9394 343° North 247 284 8,000 -48 Level Los Angeles Center
Wed 08:49:39 PM 33.5531 -117.9689 343° North 248 285 7,900 -316 Descending Los Angeles Center
Wed 08:50:50 PM 33.6333 -118.0000 342° North 243 280 7,300 -432 Descending Southern California TRACON
Wed 08:51:44 PM 33.6833 -118.0167 344° North 235 270 7,000 -200 Descending Southern California TRACON
Wed 08:52:50 PM 33.7500 -118.0500 337° Northwest 232 267 6,900 -190 Descending Southern California TRACON
Wed 08:53:50 PM 33.8167 -118.0667 348° North 242 278 6,600 -600 Descending Southern California TRACON
Wed 08:54:50 PM 33.8833 -118.0667 360° North 214 246 5,700 -843 Descending Southern California TRACON
Wed 08:55:51 PM 33.9333 -118.0833 345° North 211 243 4,900 -992 Descending Southern California TRACON
Wed 08:56:51 PM 33.9500 -118.1500 287° West 214 246 3,700 -1,050 Descending Southern California TRACON
Wed 08:57:51 PM 33.9500 -118.2333 270° West 215 247 2,800 -900 Descending Southern California TRACON

Login

Don't have an account? Register now (free) for customized features, flight alerts, and more!